Time;durP1;ratioP1;P1;durP2;ratioP2;P2;SDS_P1;SDS_P2;PMS_P1;PMS_P2;Temp;Humidity;BMP_temperature;BMP_pressure;BME280_temperature;BME280_humidity;BME280_pressure;Samples;Min_cycle;Max_cycle;Signal;HPM_P1;HPM_P2
2023/09/29 00:02:03;;;;;;;7.07;3.80;;;;;;;15.26;100.00;149913.78;4925749;28;20252;-58
2023/09/29 00:04:30;;;;;;;7.17;3.87;;;;;;;15.31;100.00;149927.53;4922869;28;20281;-58
2023/09/29 00:07:04;;;;;;;7.17;3.57;;;;;;;15.21;100.00;149902.56;4925983;28;20242;-58
2023/09/29 00:09:31;;;;;;;8.63;3.80;;;;;;;15.24;100.00;149910.06;4922445;28;20261;-57
2023/09/29 00:12:03;;;;;;;7.30;3.67;;;;;;;15.15;100.00;149887.56;4924282;28;20235;-57
2023/09/29 00:14:31;;;;;;;7.33;3.83;;;;;;;15.08;100.00;149870.09;4922410;28;20239;-57
2023/09/29 00:17:02;;;;;;;6.13;3.50;;;;;;;15.11;100.00;149878.81;4925646;28;20301;-57
2023/09/29 00:19:29;;;;;;;6.70;3.30;;;;;;;15.12;100.00;149881.31;4923001;28;20308;-58
2023/09/29 00:22:21;;;;;;;5.57;3.50;;;;;;;15.32;100.00;149930.03;4923026;28;20251;-58
2023/09/29 00:24:48;;;;;;;6.63;3.43;;;;;;;15.23;100.00;149907.56;4927364;28;20293;-57
2023/09/29 00:27:15;;;;;;;7.33;3.70;;;;;;;15.24;100.00;149910.06;4921867;28;20722;-56
2023/09/29 00:29:42;;;;;;;4.90;3.40;;;;;;;15.23;100.00;149907.56;4939360;28;20237;-57
2023/09/29 00:32:08;;;;;;;4.67;3.10;;;;;;;15.25;100.00;149911.28;4924083;29;20629;-57
2023/09/29 00:34:36;;;;;;;5.20;3.50;;;;;;;15.19;100.00;149897.56;4937338;28;20241;-57
2023/09/29 00:37:04;;;;;;;6.93;3.70;;;;;;;15.12;100.00;149880.06;4928173;28;20308;-57
2023/09/29 00:39:32;;;;;;;6.83;3.50;;;;;;;15.14;100.00;149886.31;4925474;28;20261;-57
2023/09/29 00:42:06;;;;;;;6.33;3.40;;;;;;;15.10;100.00;149875.06;4929162;28;20253;-58
2023/09/29 00:44:33;;;;;;;10.30;3.30;;;;;;;15.13;100.00;149882.56;4924141;28;20333;-58
2023/09/29 00:47:05;;;;;;;6.87;3.37;;;;;;;15.07;100.00;149868.81;4943436;28;20249;-58
2023/09/29 00:49:31;;;;;;;8.03;3.37;;;;;;;14.99;100.00;149850.09;4925902;28;20245;-57
2023/09/29 00:52:04;;;;;;;6.90;3.53;;;;;;;15.09;100.00;149873.81;4927439;28;20227;-58
2023/09/29 00:54:33;;;;;;;10.00;4.40;;;;;;;15.22;100.00;149903.78;4924473;28;22295;-59
2023/09/29 00:57:05;;;;;;;6.57;3.60;;;;;;;15.11;100.00;149878.81;4930578;28;20321;-58
2023/09/29 00:59:34;;;;;;;6.27;3.60;;;;;;;15.02;100.00;149857.59;4927595;28;20670;-56
2023/09/29 01:02:06;;;;;;;5.33;3.13;;;;;;;15.01;100.00;149853.81;4927238;28;20789;-58
2023/09/29 01:04:34;;;;;;;6.47;3.77;;;;;;;14.96;100.00;149841.31;4942821;28;20727;-58
2023/09/29 01:07:04;;;;;;;5.33;3.33;;;;;;;14.94;100.00;149837.59;4943711;28;20255;-57
2023/09/29 01:09:32;;;;;;;6.27;3.07;;;;;;;15.06;100.00;149866.31;4924179;28;20238;-58
2023/09/29 01:12:04;;;;;;;5.50;3.50;;;;;;;15.04;100.00;149861.31;4932493;28;20691;-58
2023/09/29 01:14:37;;;;;;;4.97;3.27;;;;;;;15.04;100.00;149861.31;4938922;28;20261;-58
2023/09/29 01:17:04;;;;;;;5.33;3.50;;;;;;;15.04;100.00;149862.59;4919864;28;20234;-58
2023/09/29 01:19:32;;;;;;;5.90;3.17;;;;;;;15.02;100.00;149857.59;4939684;28;20637;-58
2023/09/29 01:22:04;;;;;;;5.57;3.53;;;;;;;15.02;100.00;149857.59;4926925;28;20281;-58
2023/09/29 01:24:32;;;;;;;8.47;3.97;;;;;;;15.04;100.00;149862.59;4924945;28;20255;-58
2023/09/29 01:27:03;;;;;;;6.80;3.90;;;;;;;15.06;100.00;149866.31;4926879;28;20276;-58
2023/09/29 01:29:30;;;;;;;4.27;3.40;;;;;;;15.08;100.00;149870.09;4923291;28;20234;-58
2023/09/29 01:32:03;;;;;;;6.20;3.30;;;;;;;15.08;100.00;149871.31;4932320;28;20230;-58
2023/09/29 01:34:31;;;;;;;6.57;3.43;;;;;;;15.04;100.00;149861.31;4937372;28;22294;-58
2023/09/29 01:37:04;;;;;;;8.23;3.40;;;;;;;15.03;100.00;149858.81;4933498;28;20586;-58
2023/09/29 01:39:32;;;;;;;6.13;3.10;;;;;;;14.98;100.00;149846.31;4924316;28;20242;-58
2023/09/29 01:42:05;;;;;;;4.90;3.10;;;;;;;14.93;100.00;149835.09;4935750;28;20330;-58
2023/09/29 01:44:32;;;;;;;4.80;3.20;;;;;;;14.90;100.00;149828.84;4937901;28;20733;-58
2023/09/29 01:47:03;;;;;;;5.83;3.40;;;;;;;14.88;100.00;149823.84;4927406;28;20230;-58
2023/09/29 01:49:30;;;;;;;4.53;3.20;;;;;;;14.89;100.00;149825.13;4924786;28;20264;-57
2023/09/29 01:52:03;;;;;;;8.10;3.90;;;;;;;14.96;100.00;149841.31;4934900;28;20262;-58
2023/09/29 01:54:29;;;;;;;5.83;3.57;;;;;;;14.96;100.00;149842.59;4928131;28;20240;-58
2023/09/29 01:57:22;;;;;;;8.83;3.93;;;;;;;15.04;100.00;149861.31;4926857;28;20225;-58
2023/09/29 01:59:48;;;;;;;5.20;3.73;;;;;;;15.08;100.00;149871.31;4930724;28;20232;-58
2023/09/29 02:02:15;;;;;;;7.20;3.30;;;;;;;15.13;100.00;149883.81;4926832;28;21013;-58
2023/09/29 02:04:42;;;;;;;6.43;3.70;;;;;;;15.19;100.00;149897.56;4931729;28;20732;-55
2023/09/29 02:07:10;;;;;;;5.67;3.50;;;;;;;15.26;100.00;149913.78;4930016;28;20230;-58
2023/09/29 02:09:37;;;;;;;6.13;4.03;;;;;;;15.33;100.00;149931.28;4944010;28;20249;-58
2023/09/29 02:12:03;;;;;;;4.80;3.17;;;;;;;15.38;100.00;149943.75;4932215;28;20298;-58
2023/09/29 02:14:33;;;;;;;7.70;3.87;;;;;;;15.45;100.00;149959.97;4927026;28;20245;-58
2023/09/29 02:17:05;;;;;;;10.37;3.83;;;;;;;15.55;100.00;149983.75;4929421;28;20376;-58
2023/09/29 02:19:35;;;;;;;6.60;3.87;;;;;;;15.63;100.00;150003.75;4929498;28;20238;-57
2023/09/29 02:22:04;;;;;;;7.93;3.53;;;;;;;15.66;100.00;150011.25;4945509;28;20236;-58
2023/09/29 02:24:31;;;;;;;4.80;3.67;;;;;;;15.69;100.00;150017.47;4928109;28;20243;-58
2023/09/29 02:27:07;;;;;;;5.13;3.30;;;;;;;15.72;100.00;150026.22;4946837;28;20526;-58
2023/09/29 02:29:35;;;;;;;5.80;3.50;;;;;;;15.72;100.00;150024.97;4928224;28;20309;-58
2023/09/29 02:32:03;;;;;;;4.47;3.13;;;;;;;15.74;100.00;150029.97;4947219;28;20254;-58
2023/09/29 02:34:29;;;;;;;5.90;3.37;;;;;;;15.75;100.00;150033.72;4931201;28;20232;-58
2023/09/29 02:37:21;;;;;;;5.23;3.27;;;;;;;15.81;100.00;150046.22;4929034;28;20229;-58
2023/09/29 02:39:49;;;;;;;4.90;3.80;;;;;;;15.80;100.00;150044.97;4929296;28;20238;-58
2023/09/29 02:42:17;;;;;;;5.73;3.57;;;;;;;15.79;100.00;150042.44;4929380;28;20326;-58
2023/09/29 02:44:45;;;;;;;7.73;3.50;;;;;;;15.79;100.00;150043.72;4930341;28;20258;-58
2023/09/29 02:47:11;;;;;;;6.30;3.10;;;;;;;15.76;100.00;150034.97;4930846;28;20225;-58
2023/09/29 02:49:38;;;;;;;5.17;3.37;;;;;;;15.75;100.00;150032.47;4930029;28;20231;-58
2023/09/29 02:52:06;;;;;;;6.13;3.60;;;;;;;15.77;100.00;150038.72;4931357;28;20241;-58
2023/09/29 02:54:32;;;;;;;6.27;3.23;;;;;;;15.86;100.00;150058.72;4925929;28;20243;-57
2023/09/29 02:57:03;;;;;;;5.77;3.40;;;;;;;15.83;100.00;150051.22;4929874;28;20418;-58
2023/09/29 02:59:33;;;;;;;7.87;3.90;;;;;;;15.83;100.00;150051.22;4927479;28;20242;-58
2023/09/29 03:04:47;;;;;;;6.50;3.70;;;;;;;15.86;100.00;150058.72;5308239;23;20231;-58
2023/09/29 03:07:14;;;;;;;8.83;3.73;;;;;;;15.91;100.00;150071.22;4943844;28;20316;-58
2023/09/29 03:09:42;;;;;;;5.93;3.67;;;;;;;16.00;100.00;150093.72;4929024;28;20740;-57
2023/09/29 03:12:08;;;;;;;5.03;3.60;;;;;;;16.03;100.00;150101.22;4928743;29;20545;-58
2023/09/29 03:14:37;;;;;;;7.27;4.00;;;;;;;16.06;100.00;150108.72;4916989;28;20307;-58
2023/09/29 03:17:04;;;;;;;6.63;3.70;;;;;;;16.07;100.00;150111.22;4913165;29;20247;-58
2023/09/29 03:19:31;;;;;;;4.43;3.10;;;;;;;16.12;100.00;150122.50;4911112;28;23220;-57
2023/09/29 03:22:04;;;;;;;5.47;3.10;;;;;;;16.11;100.00;150118.72;4911990;28;20234;-58
2023/09/29 03:24:30;;;;;;;10.73;3.50;;;;;;;16.13;100.00;150123.72;4907964;28;20606;-58
2023/09/29 03:27:03;;;;;;;6.13;3.73;;;;;;;16.13;100.00;150123.72;4911657;28;20292;-58
2023/09/29 03:29:30;;;;;;;5.50;3.57;;;;;;;16.12;100.00;150122.50;4913751;28;20225;-57
2023/09/29 03:32:03;;;;;;;6.27;4.70;;;;;;;16.14;100.00;150126.22;5136339;23;20318;-57
2023/09/29 03:34:29;;;;;;;5.17;3.60;;;;;;;16.10;100.00;150117.50;4924489;28;20231;-57
2023/09/29 03:37:23;;;;;;;4.93;3.50;;;;;;;16.08;100.00;150113.72;4928268;28;20358;-58
2023/09/29 03:39:49;;;;;;;6.60;3.10;;;;;;;16.07;100.00;150110.00;4929746;28;21001;-57
2023/09/29 03:42:16;;;;;;;5.47;4.07;;;;;;;16.08;100.00;150112.50;4919139;28;20314;-58
2023/09/29 03:44:44;;;;;;;7.40;4.03;;;;;;;16.08;100.00;150113.72;4910175;29;20579;-57
2023/09/29 03:47:11;;;;;;;5.33;3.80;;;;;;;16.11;100.00;150118.72;4908739;28;20252;-58
2023/09/29 03:49:38;;;;;;;8.87;3.70;;;;;;;16.14;100.00;150126.22;4904322;29;20241;-58
2023/09/29 03:52:06;;;;;;;6.63;3.97;;;;;;;16.15;100.00;150128.72;4909163;28;20224;-58
2023/09/29 03:54:34;;;;;;;6.10;3.53;;;;;;;16.19;100.00;150140.00;4911309;28;20243;-57
2023/09/29 03:57:03;;;;;;;5.30;3.93;;;;;;;16.17;100.00;150133.72;4911219;29;20737;-57
2023/09/29 03:59:30;;;;;;;4.77;3.70;;;;;;;16.16;100.00;150131.22;4909528;28;20564;-58
2023/09/29 04:02:04;;;;;;;6.27;3.87;;;;;;;16.16;100.00;150131.22;4912947;28;20326;-57
2023/09/29 04:04:32;;;;;;;5.60;3.80;;;;;;;16.16;100.00;150131.22;4907119;28;20241;-58
2023/09/29 04:07:03;;;;;;;6.63;3.33;;;;;;;16.17;100.00;150133.72;4910856;29;20758;-58
2023/09/29 04:09:29;;;;;;;7.77;3.73;;;;;;;16.22;100.00;150146.22;4902061;29;20240;-58
2023/09/29 04:12:22;;;;;;;6.23;3.77;;;;;;;16.20;100.00;150141.22;4908163;28;20245;-58
2023/09/29 04:14:52;;;;;;;7.47;3.83;;;;;;;16.22;100.00;150146.22;4914483;29;20293;-58
2023/09/29 04:17:19;;;;;;;6.63;3.77;;;;;;;16.26;100.00;150156.22;4911363;28;20302;-57
2023/09/29 04:19:46;;;;;;;8.47;3.67;;;;;;;16.27;100.00;150158.72;4911946;29;20747;-58
2023/09/29 04:22:12;;;;;;;7.27;3.40;;;;;;;16.26;100.00;150156.22;4910649;28;20320;-58
2023/09/29 04:24:40;;;;;;;8.93;4.47;;;;;;;16.24;100.00;150151.22;4911962;28;20228;-58
2023/09/29 04:27:06;;;;;;;7.33;3.83;;;;;;;16.26;100.00;150155.00;4916899;28;20234;-58
2023/09/29 04:29:34;;;;;;;6.97;4.07;;;;;;;16.23;100.00;150150.00;4911822;28;20315;-58
2023/09/29 04:32:06;;;;;;;7.13;3.77;;;;;;;16.20;100.00;150142.50;4908414;28;20740;-58
2023/09/29 04:34:32;;;;;;;5.03;4.07;;;;;;;16.20;100.00;150141.22;4906270;29;20640;-58
2023/09/29 04:37:03;;;;;;;6.70;3.83;;;;;;;16.17;100.00;150135.00;4911809;28;20262;-58
2023/09/29 04:39:29;;;;;;;6.50;4.07;;;;;;;16.26;100.00;150155.00;4906772;28;20226;-58
2023/09/29 04:42:21;;;;;;;4.70;3.77;;;;;;;16.33;100.00;150172.50;4907422;28;20378;-58
2023/09/29 04:44:49;;;;;;;5.97;3.70;;;;;;;16.29;100.00;150163.72;4910887;29;20235;-59
2023/09/29 04:47:15;;;;;;;8.93;3.90;;;;;;;16.27;100.00;150157.50;4910861;28;20228;-58
2023/09/29 04:49:42;;;;;;;6.97;4.13;;;;;;;16.27;100.00;150157.50;4911462;28;20895;-57
2023/09/29 04:52:09;;;;;;;9.80;4.10;;;;;;;16.23;100.00;150150.00;4910880;28;20257;-58
2023/09/29 04:54:35;;;;;;;5.97;4.63;;;;;;;16.21;100.00;150143.72;4909584;28;20235;-58
2023/09/29 04:57:04;;;;;;;10.30;3.80;;;;;;;16.19;100.00;150138.72;4913897;28;20233;-58
2023/09/29 04:59:31;;;;;;;8.60;4.17;;;;;;;16.15;100.00;150128.72;4908035;28;20260;-58
2023/09/29 05:02:05;;;;;;;6.47;4.30;;;;;;;16.15;100.00;150128.72;4912853;28;20327;-58
2023/09/29 05:04:32;;;;;;;6.47;4.00;;;;;;;16.12;100.00;150121.22;4907711;28;20708;-58
2023/09/29 05:07:03;;;;;;;7.30;4.00;;;;;;;16.09;100.00;150116.22;4912555;28;20243;-59
2023/09/29 05:09:29;;;;;;;5.90;4.17;;;;;;;16.05;100.00;150106.22;4906827;28;20244;-59
2023/09/29 05:12:21;;;;;;;8.50;4.33;;;;;;;16.03;100.00;150100.00;4912644;28;20358;-59
2023/09/29 05:14:48;;;;;;;6.00;4.23;;;;;;;16.03;100.00;150100.00;4907893;29;20598;-58
2023/09/29 05:17:16;;;;;;;6.07;4.60;;;;;;;16.09;100.00;150116.22;4905479;28;20748;-59
2023/09/29 05:19:42;;;;;;;6.87;4.27;;;;;;;16.07;100.00;150110.00;4907625;28;20238;-59
2023/09/29 05:22:09;;;;;;;8.70;4.80;;;;;;;16.02;100.00;150097.50;4903740;28;20592;-59
2023/09/29 05:24:35;;;;;;;5.83;4.57;;;;;;;15.99;100.00;150090.00;4903823;28;20239;-59
2023/09/29 05:27:03;;;;;;;5.87;3.83;;;;;;;15.97;100.00;150086.22;4909743;28;20751;-57
2023/09/29 05:29:30;;;;;;;6.70;3.70;;;;;;;15.93;100.00;150076.22;4906354;29;20254;-57
2023/09/29 05:32:03;;;;;;;6.10;4.33;;;;;;;15.91;100.00;150071.22;4911605;28;20259;-58
2023/09/29 05:34:31;;;;;;;7.00;4.23;;;;;;;15.83;100.00;150051.22;4906375;28;20250;-60
2023/09/29 05:37:03;;;;;;;6.37;4.30;;;;;;;15.78;100.00;150041.22;4906112;28;20246;-58
2023/09/29 05:39:30;;;;;;;7.17;4.20;;;;;;;15.78;100.00;150041.22;4906821;28;20647;-58
2023/09/29 05:42:21;;;;;;;8.63;4.53;;;;;;;15.76;100.00;150036.22;4902572;28;20239;-57
2023/09/29 05:44:48;;;;;;;8.23;4.40;;;;;;;15.70;100.00;150021.22;4907466;29;20254;-57
2023/09/29 05:47:16;;;;;;;7.13;4.53;;;;;;;15.67;100.00;150013.72;4906993;28;20702;-58
2023/09/29 05:49:44;;;;;;;8.20;4.33;;;;;;;15.65;100.00;150008.75;4910283;29;20240;-57
2023/09/29 05:52:12;;;;;;;5.87;4.37;;;;;;;15.63;100.00;150004.97;4913786;28;20243;-57
2023/09/29 05:54:38;;;;;;;8.90;4.77;;;;;;;15.61;100.00;149999.97;4909610;29;20238;-57
2023/09/29 05:57:05;;;;;;;9.70;4.93;;;;;;;15.65;100.00;150009.97;4910308;28;20684;-57
2023/09/29 05:59:31;;;;;;;7.03;4.10;;;;;;;15.71;100.00;150023.72;4908575;28;20249;-57
2023/09/29 06:02:03;;;;;;;7.13;4.60;;;;;;;15.79;100.00;150043.72;4911757;28;20240;-57
2023/09/29 06:04:29;;;;;;;7.00;4.10;;;;;;;15.84;100.00;150053.72;4904735;29;20295;-57
2023/09/29 06:07:23;;;;;;;5.90;4.67;;;;;;;15.92;100.00;150073.72;4908938;28;20342;-57
2023/09/29 06:09:49;;;;;;;8.17;5.10;;;;;;;15.97;100.00;150086.22;4909166;29;20240;-57
2023/09/29 06:12:16;;;;;;;7.50;4.50;;;;;;;16.08;100.00;150112.50;4903394;29;20599;-58
2023/09/29 06:14:42;;;;;;;8.60;4.87;;;;;;;16.27;100.00;150157.50;4914532;29;20261;-58
2023/09/29 06:17:09;;;;;;;7.63;4.77;;;;;;;16.40;100.00;150188.72;4906807;28;20241;-55
2023/09/29 06:19:35;;;;;;;6.60;4.50;;;;;;;16.49;100.00;150211.22;4907409;28;20235;-58
2023/09/29 06:22:04;;;;;;;7.00;4.30;;;;;;;16.63;100.00;150246.22;4904939;29;20242;-57
2023/09/29 06:24:32;;;;;;;7.40;4.60;;;;;;;16.74;100.00;150272.47;4902495;28;20706;-58
2023/09/29 06:27:03;;;;;;;6.63;4.60;;;;;;;16.84;100.00;150296.25;4911020;28;20457;-57
2023/09/29 06:29:30;;;;;;;7.07;4.40;;;;;;;16.89;100.00;150308.75;4905488;28;20220;-57
2023/09/29 06:32:21;;;;;;;8.07;4.60;;;;;;;17.00;100.00;150335.03;4910051;28;20231;-58
2023/09/29 06:34:48;;;;;;;7.70;4.13;;;;;;;17.11;100.00;150361.28;4914894;29;20239;-58
2023/09/29 06:37:15;;;;;;;5.60;4.50;;;;;;;17.14;100.00;150368.78;4905077;28;20860;-58
2023/09/29 06:39:43;;;;;;;8.33;4.53;;;;;;;17.17;100.00;150376.28;4912667;28;20238;-57
2023/09/29 06:42:09;;;;;;;7.30;4.77;;;;;;;17.33;100.00;150413.81;4899992;28;20235;-57
2023/09/29 06:44:36;;;;;;;9.50;5.13;;;;;;;17.35;100.00;150418.81;4898750;28;20255;-58
2023/09/29 06:47:03;;;;;;;11.17;5.23;;;;;;;17.46;100.00;150446.31;4901168;28;20244;-58
2023/09/29 06:49:30;;;;;;;8.60;4.73;;;;;;;17.52;100.00;150460.06;4905458;29;20224;-58
2023/09/29 06:52:21;;;;;;;10.87;4.47;;;;;;;17.58;100.00;150475.06;4909400;28;20350;-58
2023/09/29 06:54:49;;;;;;;8.20;4.70;;;;;;;17.69;100.00;150501.38;4912240;28;20238;-58
2023/09/29 06:57:16;;;;;;;8.03;4.77;;;;;;;17.71;100.00;150507.59;4909588;28;20228;-58
2023/09/29 06:59:43;;;;;;;8.73;4.90;;;;;;;17.72;100.00;150508.88;4911130;29;20614;-54
2023/09/29 07:02:09;;;;;;;6.33;4.47;;;;;;;17.78;100.00;150523.91;4916648;29;20248;-58
2023/09/29 07:04:36;;;;;;;10.50;5.37;;;;;;;17.82;100.00;150532.63;4911316;28;20235;-57
2023/09/29 07:07:03;;;;;;;8.37;4.80;;;;;;;17.77;100.00;150520.13;4911775;29;20351;-56
2023/09/29 07:09:29;;;;;;;7.97;5.30;;;;;;;17.78;100.00;150522.63;4905555;29;20221;-57
2023/09/29 07:12:24;;;;;;;7.80;4.83;;;;;;;17.68;100.00;150500.09;4912456;28;20609;-58
2023/09/29 07:14:51;;;;;;;7.23;5.23;;;;;;;17.58;100.00;150475.06;4909823;29;20229;-58
2023/09/29 07:17:18;;;;;;;8.70;5.30;;;;;;;17.49;100.00;150453.84;4910014;28;20645;-57
2023/09/29 07:19:45;;;;;;;8.33;5.10;;;;;;;17.50;100.00;150455.06;4915530;28;20251;-57
2023/09/29 07:22:12;;;;;;;7.03;5.23;;;;;;;17.49;100.00;150452.59;4907132;28;20799;-58
2023/09/29 07:24:40;;;;;;;12.80;6.13;;;;;;;17.32;100.00;150411.31;4914638;28;20228;-57
2023/09/29 07:27:08;;;;;;;12.00;5.60;;;;;;;17.34;100.00;150416.31;4905102;29;20243;-57
2023/09/29 07:29:36;;;;;;;11.47;5.17;;;;;;;17.18;100.00;150377.56;4907776;29;20235;-56
2023/09/29 07:32:03;;;;;;;7.57;5.20;;;;;;;17.15;100.00;150370.06;4911746;28;20246;-57
2023/09/29 07:34:31;;;;;;;8.80;5.47;;;;;;;17.10;100.00;150360.03;4907120;28;20694;-57
2023/09/29 07:37:03;;;;;;;12.40;6.03;;;;;;;17.02;100.00;150338.75;4904119;28;20295;-57
2023/09/29 07:39:29;;;;;;;13.37;5.77;;;;;;;16.94;100.00;150319.97;4906027;28;20236;-57
2023/09/29 07:42:21;;;;;;;7.57;4.87;;;;;;;16.94;100.00;150319.97;4908143;28;20231;-57
2023/09/29 07:44:49;;;;;;;8.90;5.57;;;;;;;16.92;100.00;150314.97;4901655;29;20229;-57
2023/09/29 07:47:16;;;;;;;10.43;5.83;;;;;;;16.91;100.00;150313.75;4903661;28;20230;-58
2023/09/29 07:49:42;;;;;;;6.97;5.27;;;;;;;17.00;100.00;150333.75;4908861;28;20643;-57
2023/09/29 07:52:09;;;;;;;9.53;5.70;;;;;;;17.14;100.00;150367.56;4915393;28;20235;-56
2023/09/29 07:54:36;;;;;;;10.57;5.40;;;;;;;17.24;100.00;150392.56;4911838;28;20322;-57
2023/09/29 07:57:03;;;;;;;10.07;5.53;;;;;;;17.35;100.00;150420.09;4909089;28;20705;-55
2023/09/29 07:59:29;;;;;;;8.03;4.90;;;;;;;17.49;100.00;150453.84;4914649;28;20220;-56
2023/09/29 08:02:04;;;;;;;7.20;5.00;;;;;;;17.53;100.00;150462.56;4914400;29;20229;-55
2023/09/29 08:04:30;;;;;;;8.33;4.93;;;;;;;17.69;100.00;150502.59;4902692;29;20586;-57
2023/09/29 08:07:23;;;;;;;7.13;4.73;;;;;;;17.94;100.00;150561.44;4907666;29;21073;-58
2023/09/29 08:09:50;;;;;;;8.20;4.93;;;;;;;18.03;100.00;150583.94;4904761;28;20319;-55
2023/09/29 08:12:17;;;;;;;7.80;4.30;;;;;;;18.21;100.00;150626.50;4903271;28;20311;-57
2023/09/29 08:14:44;;;;;;;8.00;4.80;;;;;;;18.40;100.00;150672.81;4905175;28;20688;-57
2023/09/29 08:17:12;;;;;;;7.10;4.50;;;;;;;18.59;100.00;150720.34;4908502;29;20236;-57
2023/09/29 08:19:39;;;;;;;7.00;4.13;;;;;;;18.77;100.00;150762.91;4906351;29;20239;-58
2023/09/29 08:22:06;;;;;;;8.00;5.20;;;;;;;18.88;98.32;150789.22;4914048;28;20241;-56
2023/09/29 08:24:33;;;;;;;5.40;4.17;;;;;;;19.12;98.78;150848.09;4906822;28;20246;-56
2023/09/29 08:27:03;;;;;;;7.77;4.17;;;;;;;19.29;97.00;150889.38;4910736;29;20236;-57
2023/09/29 08:29:30;;;;;;;8.53;5.00;;;;;;;19.40;94.25;150915.72;4908311;28;20241;-58
2023/09/29 08:32:23;;;;;;;9.13;4.70;;;;;;;19.50;92.46;150939.47;4908130;28;20292;-58
2023/09/29 08:34:49;;;;;;;8.73;5.40;;;;;;;19.69;91.90;150985.81;4910454;28;20630;-58
2023/09/29 08:37:16;;;;;;;6.23;4.53;;;;;;;19.79;91.40;151008.34;4909271;28;20242;-58
2023/09/29 08:39:43;;;;;;;5.57;4.47;;;;;;;19.87;90.70;151029.66;4907342;28;20578;-58
2023/09/29 08:42:22;;;;;;;6.00;4.40;;;;;;;20.01;89.47;151063.50;4915208;28;20238;-57
2023/09/29 08:44:50;;;;;;;8.97;4.47;;;;;;;20.12;88.78;151089.84;4908361;29;20237;-54
2023/09/29 08:47:23;;;;;;;6.30;4.40;;;;;;;20.24;89.22;151117.38;4913198;28;20686;-58
2023/09/29 08:49:51;;;;;;;10.63;4.27;;;;;;;20.38;89.60;151152.44;4911557;28;20245;-57
2023/09/29 08:52:20;;;;;;;8.50;4.63;;;;;;;20.53;86.93;151187.53;4904696;29;20253;-58
2023/09/29 08:54:46;;;;;;;8.10;4.37;;;;;;;20.65;86.22;151218.88;4910474;29;20277;-58
2023/09/29 08:57:15;;;;;;;4.73;3.93;;;;;;;20.79;86.25;151252.75;4904640;28;20252;-57
2023/09/29 08:59:46;;;;;;;5.33;3.27;;;;;;;21.10;77.73;151326.69;4911017;29;20237;-58
2023/09/29 09:02:13;;;;;;;9.17;4.30;;;;;;;21.65;75.26;151460.84;4902705;29;20227;-58
2023/09/29 09:04:39;;;;;;;6.40;3.83;;;;;;;21.58;77.51;151442.00;4913988;29;20567;-57
2023/09/29 09:07:08;;;;;;;5.57;3.10;;;;;;;21.74;72.83;151482.13;4912725;28;20236;-58
2023/09/29 09:09:36;;;;;;;8.10;4.23;;;;;;;21.76;77.40;151485.91;4903638;29;20241;-59
2023/09/29 09:12:04;;;;;;;9.70;4.47;;;;;;;21.88;77.14;151514.75;4910461;28;20648;-59
2023/09/29 09:14:39;;;;;;;7.67;4.20;;;;;;;21.96;73.70;151536.09;4908867;28;20581;-59
2023/09/29 09:17:07;;;;;;;7.00;3.37;;;;;;;22.08;77.12;151563.69;4908440;28;20226;-58
2023/09/29 09:19:42;;;;;;;5.97;4.20;;;;;;;22.11;75.05;151571.19;4905408;28;20230;-58
2023/09/29 09:22:16;;;;;;;6.53;3.50;;;;;;;22.35;72.96;151630.13;4910693;28;20267;-59
2023/09/29 09:24:43;;;;;;;6.93;4.07;;;;;;;22.44;72.88;151650.19;4908666;28;20329;-57
2023/09/29 09:27:10;;;;;;;9.73;3.80;;;;;;;22.47;72.12;151657.78;4910004;28;20229;-59
2023/09/29 09:29:41;;;;;;;5.10;3.47;;;;;;;22.59;68.67;151686.59;4903562;29;20238;-59
2023/09/29 09:32:10;;;;;;;5.03;3.20;;;;;;;22.77;66.68;151731.78;4913793;28;20238;-59
2023/09/29 09:34:38;;;;;;;7.00;3.10;;;;;;;22.84;65.54;151748.06;4910162;28;20320;-55
2023/09/29 09:37:06;;;;;;;5.53;3.40;;;;;;;23.08;64.21;151805.78;4918680;28;20225;-58
2023/09/29 09:39:35;;;;;;;7.27;3.23;;;;;;;23.12;63.22;151817.09;4908280;29;20696;-58
2023/09/29 09:42:05;;;;;;;6.67;3.60;;;;;;;23.19;64.20;151832.16;4909407;28;20326;-58
2023/09/29 09:44:34;;;;;;;7.93;3.10;;;;;;;23.30;63.72;151859.81;4900985;28;20233;-57
2023/09/29 09:47:04;;;;;;;3.93;3.30;;;;;;;23.38;63.50;151879.84;4908831;28;20230;-58
2023/09/29 09:49:38;;;;;;;7.40;3.73;;;;;;;23.48;62.44;151903.69;4902945;29;20259;-57
2023/09/29 09:52:07;;;;;;;4.87;3.20;;;;;;;23.67;61.98;151950.13;4913613;28;20260;-58
2023/09/29 09:54:45;;;;;;;7.07;3.57;;;;;;;23.43;62.21;151892.38;4910112;29;20243;-57
2023/09/29 09:57:13;;;;;;;6.63;3.80;;;;;;;23.46;61.09;151898.69;4912507;29;20232;-59
2023/09/29 09:59:42;;;;;;;7.43;4.10;;;;;;;23.57;62.00;151925.03;4908287;29;20235;-57
2023/09/29 10:02:11;;;;;;;5.90;3.60;;;;;;;23.67;61.46;151950.13;4912929;28;20247;-57
2023/09/29 10:04:39;;;;;;;5.97;3.60;;;;;;;23.63;60.91;151940.09;4913054;28;20239;-58
2023/09/29 10:07:06;;;;;;;6.07;3.63;;;;;;;23.68;60.81;151951.41;4900278;29;20234;-56
2023/09/29 10:09:45;;;;;;;6.93;4.00;;;;;;;23.69;61.51;151953.91;4904054;28;20236;-58
2023/09/29 10:12:24;;;;;;;8.50;3.57;;;;;;;23.87;60.51;151999.06;4904375;29;20777;-58
2023/09/29 10:14:52;;;;;;;6.27;3.70;;;;;;;23.97;58.75;152022.94;4917416;28;20238;-57
2023/09/29 10:17:20;;;;;;;9.77;4.30;;;;;;;24.01;60.12;152033.03;4907492;28;20240;-58
2023/09/29 10:19:50;;;;;;;5.20;4.40;;;;;;;24.14;58.80;152064.38;4909845;28;20220;-58
2023/09/29 10:22:23;;;;;;;8.27;4.17;;;;;;;24.10;59.47;152053.13;4908033;28;20237;-58
2023/09/29 10:24:56;;;;;;;7.60;4.10;;;;;;;24.15;58.90;152066.91;4914367;29;20271;-58
2023/09/29 10:27:31;;;;;;;9.60;4.63;;;;;;;23.89;58.24;152002.84;4910492;28;20737;-58
2023/09/29 10:30:16;;;;;;;8.87;3.90;;;;;;;24.01;58.95;152033.03;4909936;28;20235;-58
2023/09/29 10:32:45;;;;;;;6.67;3.83;;;;;;;24.24;59.15;152087.00;4910447;28;20243;-57
2023/09/29 10:35:18;;;;;;;6.13;4.20;;;;;;;24.31;58.01;152104.56;4904816;28;20233;-58
2023/09/29 10:37:49;;;;;;;6.10;3.87;;;;;;;24.41;59.28;152129.69;4913888;28;20298;-58
2023/09/29 10:40:28;;;;;;;14.50;4.83;;;;;;;24.28;57.90;152098.31;4911034;28;20820;-58
2023/09/29 10:42:56;;;;;;;8.30;4.60;;;;;;;24.35;59.36;152113.38;4908444;28;20313;-58
2023/09/29 10:45:28;;;;;;;7.70;4.83;;;;;;;24.24;58.26;152088.25;4909958;28;20261;-56
2023/09/29 10:48:01;;;;;;;7.13;4.27;;;;;;;24.50;57.94;152149.78;4911109;28;20242;-58
2023/09/29 10:50:28;;;;;;;7.97;4.33;;;;;;;24.51;57.82;152152.28;4908443;29;20241;-58
2023/09/29 10:52:54;;;;;;;6.97;4.03;;;;;;;24.51;59.05;152152.28;4914500;28;20237;-56
2023/09/29 10:55:22;;;;;;;7.93;4.03;;;;;;;24.44;62.86;152135.94;4907828;28;20231;-60
2023/09/29 10:57:49;;;;;;;10.43;4.80;;;;;;;24.66;59.03;152188.69;4914868;28;20229;-61
2023/09/29 11:00:17;;;;;;;5.67;3.80;;;;;;;24.66;57.25;152188.69;4911675;28;20228;-60
2023/09/29 11:02:45;;;;;;;6.37;3.87;;;;;;;24.70;58.90;152200.00;4911737;28;20239;-57
2023/09/29 11:05:12;;;;;;;6.00;4.37;;;;;;;24.81;58.98;152226.41;4909194;29;20324;-58
2023/09/29 11:07:50;;;;;;;9.30;4.73;;;;;;;24.57;58.83;152167.34;4907342;28;20334;-55
2023/09/29 11:10:18;;;;;;;5.10;4.07;;;;;;;24.77;57.91;152216.34;4904562;29;20835;-58
2023/09/29 11:12:47;;;;;;;6.37;4.10;;;;;;;24.80;58.21;152222.66;4912559;28;20285;-58
2023/09/29 11:15:14;;;;;;;5.73;3.60;;;;;;;24.84;58.58;152233.94;4909524;28;20257;-58
2023/09/29 11:17:45;;;;;;;5.63;3.50;;;;;;;24.93;59.06;152254.03;4911916;28;20237;-56
2023/09/29 11:20:16;;;;;;;5.73;3.60;;;;;;;24.86;59.13;152238.97;4909192;28;20230;-57
2023/09/29 11:22:43;;;;;;;4.70;3.90;;;;;;;24.84;57.45;152232.72;4912827;28;20227;-55
2023/09/29 11:25:17;;;;;;;6.30;3.63;;;;;;;24.93;58.64;152255.25;4914538;28;20229;-57
2023/09/29 11:27:50;;;;;;;4.00;3.20;;;;;;;25.13;57.60;152304.28;4903734;28;20239;-58
2023/09/29 11:30:19;;;;;;;7.30;3.70;;;;;;;25.22;58.22;152324.38;4903763;28;20225;-56
2023/09/29 11:32:45;;;;;;;4.57;3.57;;;;;;;25.07;57.63;152289.22;4915514;28;20234;-56
2023/09/29 11:35:16;;;;;;;11.03;4.10;;;;;;;24.97;57.15;152264.09;4907646;29;20223;-56